Time;durP1;ratioP1;P1;durP2;ratioP2;P2;SDS_P1;SDS_P2;PMS_P1;PMS_P2;Temp;Humidity;BMP_temperature;BMP_pressure;BME280_temperature;BME280_humidity;BME280_pressure;Samples;Min_cycle;Max_cycle;Signal;HPM_P1;HPM_P2
2022/09/21 00:02:06;;;;;;;;;;;;;;;;;;5074227;28;19966;-65
2022/09/21 00:04:31;;;;;;;;;;;;;;;;;;5066976;28;19916;-66
2022/09/21 00:06:56;;;;;;;;;;;;;;;;;;5090184;28;19909;-65
2022/09/21 00:09:21;;;;;;;;;;;;;;;;;;5077992;28;19973;-66
2022/09/21 00:11:46;;;;;;;;;;;;;;;;;;5076755;28;19914;-66
2022/09/21 00:14:12;;;;;;;;;;;;;;;;;;5091406;28;19916;-66
2022/09/21 00:16:37;;;;;;;;;;;;;;;;;;5068043;28;20408;-66
2022/09/21 00:19:02;;;;;;;;;;;;;;;;;;5099974;28;19989;-66
2022/09/21 00:21:27;;;;;;;;;;;;;;;;;;5078432;28;19939;-66
2022/09/21 00:23:53;;;;;;;;;;;;;;;;;;5094235;28;19934;-66
2022/09/21 00:26:18;;;;;;;;;;;;;;;;;;5096409;28;19912;-66
2022/09/21 00:28:43;;;;;;;;;;;;;;;;;;5074678;28;19912;-66
2022/09/21 00:31:11;;;;;;;;;;;;;;;;;;5082990;28;19942;-66
2022/09/21 00:33:36;;;;;;;;;;;;;;;;;;5086906;28;19912;-66
2022/09/21 00:36:02;;;;;;;;;;;;;;;;;;5086489;28;19967;-65
2022/09/21 00:38:27;;;;;;;;;;;;;;;;;;5075324;28;19921;-66
2022/09/21 00:40:52;;;;;;;;;;;;;;;;;;5057665;28;19967;-65
2022/09/21 00:43:17;;;;;;;;;;;;;;;;;;5058108;28;20344;-66
2022/09/21 00:45:42;;;;;;;;;;;;;;;;;;5078079;28;19957;-67
2022/09/21 00:48:07;;;;;;;;;;;;;;;;;;5069644;28;19920;-66
2022/09/21 00:50:32;;;;;;;;;;;;;;;;;;5057278;28;19913;-65
2022/09/21 00:52:57;;;;;;;;;;;;;;;;;;5078569;28;19955;-66
2022/09/21 00:55:23;;;;;;;;;;;;;;;;;;5078816;28;19918;-66
2022/09/21 00:57:48;;;;;;;;;;;;;;;;;;5078167;28;19965;-67
2022/09/21 01:00:13;;;;;;;;;;;;;;;;;;5075050;28;19913;-66
2022/09/21 01:02:38;;;;;;;;;;;;;;;;;;5081076;28;19912;-66
2022/09/21 01:05:03;;;;;;;;;;;;;;;;;;5089813;28;19908;-66
2022/09/21 01:07:28;;;;;;;;;;;;;;;;;;5069065;28;19912;-66
2022/09/21 01:09:54;;;;;;;;;;;;;;;;;;5056503;28;19912;-66
2022/09/21 01:12:19;;;;;;;;;;;;;;;;;;5074225;28;19912;-67
2022/09/21 01:14:44;;;;;;;;;;;;;;;;;;5085179;28;20383;-66
2022/09/21 01:17:09;;;;;;;;;;;;;;;;;;5092103;28;19973;-66
2022/09/21 01:19:34;;;;;;;;;;;;;;;;;;5090467;28;19970;-66
2022/09/21 01:22:00;;;;;;;;;;;;;;;;;;5076647;28;19907;-66
2022/09/21 01:24:26;;;;;;;;;;;;;;;;;;5068010;28;20014;-66
2022/09/21 01:26:51;;;;;;;;;;;;;;;;;;5074013;28;19916;-67
2022/09/21 01:29:16;;;;;;;;;;;;;;;;;;5064993;28;19938;-66
2022/09/21 01:31:41;;;;;;;;;;;;;;;;;;5089805;28;19964;-67
2022/09/21 01:34:06;;;;;;;;;;;;;;;;;;5094910;28;19954;-66
2022/09/21 01:36:32;;;;;;;;;;;;;;;;;;5063569;28;20280;-65
2022/09/21 01:38:57;;;;;;;;;;;;;;;;;;5079597;28;20013;-67
2022/09/21 01:41:22;;;;;;;;;;;;;;;;;;5087130;28;19916;-66
2022/09/21 01:43:47;;;;;;;;;;;;;;;;;;5074448;28;19920;-67
2022/09/21 01:46:13;;;;;;;;;;;;;;;;;;5057907;28;19918;-66
2022/09/21 01:48:38;;;;;;;;;;;;;;;;;;5085829;28;19973;-67
2022/09/21 01:51:04;;;;;;;;;;;;;;;;;;5088503;28;20044;-66
2022/09/21 01:53:29;;;;;;;;;;;;;;;;;;5085823;28;19912;-66
2022/09/21 01:55:55;;;;;;;;;;;;;;;;;;5057608;28;19966;-66
2022/09/21 01:58:20;;;;;;;;;;;;;;;;;;5075554;28;20331;-67
2022/09/21 02:00:45;;;;;;;;;;;;;;;;;;5075012;28;19912;-66
2022/09/21 02:03:10;;;;;;;;;;;;;;;;;;5075338;28;19916;-67
2022/09/21 02:05:35;;;;;;;;;;;;;;;;;;5080768;28;19912;-67
2022/09/21 02:08:00;;;;;;;;;;;;;;;;;;5085538;28;19912;-67
2022/09/21 02:10:25;;;;;;;;;;;;;;;;;;5070634;28;20495;-67
2022/09/21 02:12:50;;;;;;;;;;;;;;;;;;5073441;28;19920;-66
2022/09/21 02:15:16;;;;;;;;;;;;;;;;;;5073709;28;19923;-67
2022/09/21 02:17:41;;;;;;;;;;;;;;;;;;5072964;28;19924;-66
2022/09/21 02:20:06;;;;;;;;;;;;;;;;;;5071704;28;19943;-67
2022/09/21 02:22:32;;;;;;;;;;;;;;;;;;5092618;28;19942;-66
2022/09/21 02:24:57;;;;;;;;;;;;;;;;;;5060051;28;19912;-67
2022/09/21 02:27:22;;;;;;;;;;;;;;;;;;5090791;28;19966;-67
2022/09/21 02:29:47;;;;;;;;;;;;;;;;;;5088471;28;20380;-67
2022/09/21 02:32:12;;;;;;;;;;;;;;;;;;5078720;28;19998;-66
2022/09/21 02:34:37;;;;;;;;;;;;;;;;;;5082363;28;19914;-67
2022/09/21 02:37:02;;;;;;;;;;;;;;;;;;5078446;28;19934;-67
2022/09/21 02:39:28;;;;;;;;;;;;;;;;;;5079306;28;19916;-67
2022/09/21 02:41:53;;;;;;;;;;;;;;;;;;5062659;28;19913;-66
2022/09/21 02:44:18;;;;;;;;;;;;;;;;;;5055166;28;19916;-67
2022/09/21 02:46:43;;;;;;;;;;;;;;;;;;5076474;28;19912;-67
2022/09/21 02:49:08;;;;;;;;;;;;;;;;;;5069269;28;19920;-66
2022/09/21 02:51:33;;;;;;;;;;;;;;;;;;5077558;28;19920;-66
2022/09/21 02:53:58;;;;;;;;;;;;;;;;;;5090418;28;19912;-68
2022/09/21 02:56:24;;;;;;;;;;;;;;;;;;5071303;28;20020;-67
2022/09/21 02:58:49;;;;;;;;;;;;;;;;;;5073847;28;19920;-67
2022/09/21 03:01:14;;;;;;;;;;;;;;;;;;5066036;28;19918;-67
2022/09/21 03:03:39;;;;;;;;;;;;;;;;;;5094044;28;20448;-67
2022/09/21 03:06:04;;;;;;;;;;;;;;;;;;5092073;28;19916;-67
2022/09/21 03:08:29;;;;;;;;;;;;;;;;;;5055764;28;19912;-68
2022/09/21 03:10:55;;;;;;;;;;;;;;;;;;5056373;28;19951;-67
2022/09/21 03:13:20;;;;;;;;;;;;;;;;;;5072341;28;20052;-68
2022/09/21 03:15:45;;;;;;;;;;;;;;;;;;5054556;28;20438;-67
2022/09/21 03:18:10;;;;;;;;;;;;;;;;;;5086229;28;19924;-67
2022/09/21 03:20:35;;;;;;;;;;;;;;;;;;5068432;28;20006;-68
2022/09/21 03:23:00;;;;;;;;;;;;;;;;;;5091231;28;20011;-67
2022/09/21 03:25:26;;;;;;;;;;;;;;;;;;5072969;28;19915;-68
2022/09/21 03:27:53;;;;;;;;;;;;;;;;;;5089780;28;20292;-68
2022/09/21 03:30:19;;;;;;;;;;;;;;;;;;5074745;28;19962;-67
2022/09/21 03:32:44;;;;;;;;;;;;;;;;;;5068286;28;19944;-67
2022/09/21 03:35:09;;;;;;;;;;;;;;;;;;5104572;28;20018;-67
2022/09/21 03:37:35;;;;;;;;;;;;;;;;;;5113111;28;20371;-67
2022/09/21 03:40:00;;;;;;;;;;;;;;;;;;5098127;28;20360;-67
2022/09/21 03:42:25;;;;;;;;;;;;;;;;;;5088873;28;19934;-68
2022/09/21 03:44:50;;;;;;;;;;;;;;;;;;5077059;28;19978;-67
2022/09/21 03:47:15;;;;;;;;;;;;;;;;;;5090058;28;19912;-67
2022/09/21 03:49:40;;;;;;;;;;;;;;;;;;5074683;28;19940;-67
2022/09/21 03:52:06;;;;;;;;;;;;;;;;;;5073163;28;19912;-67
2022/09/21 03:54:31;;;;;;;;;;;;;;;;;;5086945;28;19935;-68
2022/09/21 03:56:56;;;;;;;;;;;;;;;;;;5095778;28;19959;-68
2022/09/21 03:59:21;;;;;;;;;;;;;;;;;;5093651;28;19920;-68
2022/09/21 04:01:46;;;;;;;;;;;;;;;;;;5063850;28;19918;-67
2022/09/21 04:04:11;;;;;;;;;;;;;;;;;;5086112;28;19916;-67
2022/09/21 04:06:37;;;;;;;;;;;;;;;;;;5086001;28;19913;-67
2022/09/21 04:09:02;;;;;;;;;;;;;;;;;;5082726;28;19920;-66
2022/09/21 04:11:28;;;;;;;;;;;;;;;;;;5060635;28;20368;-67
2022/09/21 04:13:55;;;;;;;;;;;;;;;;;;5063278;28;20365;-68
2022/09/21 04:16:20;;;;;;;;;;;;;;;;;;5072900;28;20372;-67
2022/09/21 04:18:49;;;;;;;;;;;;;;;;;;5088752;28;19989;-68
2022/09/21 04:21:14;;;;;;;;;;;;;;;;;;5086241;28;19912;-67
2022/09/21 04:23:40;;;;;;;;;;;;;;;;;;5081490;28;20368;-67
2022/09/21 04:26:05;;;;;;;;;;;;;;;;;;5080990;28;19919;-68
2022/09/21 04:28:31;;;;;;;;;;;;;;;;;;5083670;28;19920;-67
2022/09/21 04:30:56;;;;;;;;;;;;;;;;;;5069160;28;20269;-68
2022/09/21 04:33:22;;;;;;;;;;;;;;;;;;5064147;28;19962;-67
2022/09/21 04:35:47;;;;;;;;;;;;;;;;;;5068356;28;19912;-68
2022/09/21 04:38:13;;;;;;;;;;;;;;;;;;5080643;28;19915;-67
2022/09/21 04:40:38;;;;;;;;;;;;;;;;;;5066135;28;19916;-65
2022/09/21 04:43:03;;;;;;;;;;;;;;;;;;5077612;28;19913;-65
2022/09/21 04:45:28;;;;;;;;;;;;;;;;;;5081625;28;19912;-66
2022/09/21 04:47:53;;;;;;;;;;;;;;;;;;5090599;28;19912;-65
2022/09/21 04:50:19;;;;;;;;;;;;;;;;;;5087244;28;19957;-65
2022/09/21 04:52:44;;;;;;;;;;;;;;;;;;5090775;28;20361;-66
2022/09/21 04:55:09;;;;;;;;;;;;;;;;;;5078258;28;19913;-66
2022/09/21 04:57:35;;;;;;;;;;;;;;;;;;5096870;28;19947;-65
2022/09/21 05:00:00;;;;;;;;;;;;;;;;;;5079302;28;19921;-65
2022/09/21 05:02:25;;;;;;;;;;;;;;;;;;5076050;28;20268;-65
2022/09/21 05:04:50;;;;;;;;;;;;;;;;;;5086617;28;19920;-65
2022/09/21 05:07:15;;;;;;;;;;;;;;;;;;5071574;28;19919;-66
2022/09/21 05:12:24;;;;;;;;;;;;;;;;;;5075759;28;19919;-66
2022/09/21 05:14:49;;;;;;;;;;;;;;;;;;5073735;28;20960;-66
2022/09/21 05:17:15;;;;;;;;;;;;;;;;;;5060094;28;19928;-66
2022/09/21 05:19:40;;;;;;;;;;;;;;;;;;5110854;28;19911;-66
2022/09/21 05:22:05;;;;;;;;;;;;;;;;;;5111759;28;20049;-65
2022/09/21 05:24:31;;;;;;;;;;;;;;;;;;5068992;28;19920;-66
2022/09/21 05:26:56;;;;;;;;;;;;;;;;;;5076798;28;19913;-65
2022/09/21 05:29:21;;;;;;;;;;;;;;;;;;5067875;28;19913;-64
2022/09/21 05:31:46;;;;;;;;;;;;;;;;;;5056859;28;20011;-66
2022/09/21 05:34:11;;;;;;;;;;;;;;;;;;5063128;28;19966;-66
2022/09/21 05:36:36;;;;;;;;;;;;;;;;;;5085112;28;19912;-66
2022/09/21 05:39:02;;;;;;;;;;;;;;;;;;5081366;28;20278;-65
2022/09/21 05:41:27;;;;;;;;;;;;;;;;;;5065132;28;19912;-65
2022/09/21 05:43:52;;;;;;;;;;;;;;;;;;5076015;28;20026;-65
2022/09/21 05:46:17;;;;;;;;;;;;;;;;;;5091717;28;19916;-65
2022/09/21 05:48:42;;;;;;;;;;;;;;;;;;5070941;28;19946;-66
2022/09/21 05:51:07;;;;;;;;;;;;;;;;;;5088260;28;20417;-65
2022/09/21 05:53:33;;;;;;;;;;;;;;;;;;5075892;28;20315;-64
2022/09/21 05:55:59;;;;;;;;;;;;;;;;;;5102035;28;19908;-66
2022/09/21 05:58:24;;;;;;;;;;;;;;;;;;5102789;28;19973;-66
2022/09/21 06:00:51;;;;;;;;;;;;;;;;;;5088735;28;19985;-66
2022/09/21 06:03:16;;;;;;;;;;;;;;;;;;5090336;28;19912;-66
2022/09/21 06:05:42;;;;;;;;;;;;;;;;;;5081036;28;19916;-66
2022/09/21 06:08:07;;;;;;;;;;;;;;;;;;5084716;28;19912;-66
2022/09/21 06:10:32;;;;;;;;;;;;;;;;;;5084266;28;20381;-65
2022/09/21 06:12:58;;;;;;;;;;;;;;;;;;5080609;28;20467;-65
2022/09/21 06:15:24;;;;;;;;;;;;;;;;;;5073600;28;19935;-66
2022/09/21 06:17:49;;;;;;;;;;;;;;;;;;5081957;28;19924;-65
2022/09/21 06:20:14;;;;;;;;;;;;;;;;;;5057451;28;20356;-66
2022/09/21 06:22:39;;;;;;;;;;;;;;;;;;5075840;28;19959;-65
2022/09/21 06:25:04;;;;;;;;;;;;;;;;;;5074478;28;19954;-66
2022/09/21 06:27:29;;;;;;;;;;;;;;;;;;5075533;28;19912;-65
2022/09/21 06:29:55;;;;;;;;;;;;;;;;;;5074730;28;19915;-66
2022/09/21 06:32:20;;;;;;;;;;;;;;;;;;5086168;28;19920;-65
2022/09/21 06:34:45;;;;;;;;;;;;;;;;;;5079061;28;19923;-66
2022/09/21 06:37:10;;;;;;;;;;;;;;;;;;5062579;28;19919;-66
2022/09/21 06:39:35;;;;;;;;;;;;;;;;;;5076485;28;19924;-66
2022/09/21 06:42:00;;;;;;;;;;;;;;;;;;5082575;28;19917;-66
2022/09/21 06:44:26;;;;;;;;;;;;;;;;;;5091301;28;20285;-67
2022/09/21 06:46:51;;;;;;;;;;;;;;;;;;5088979;28;20002;-66
2022/09/21 06:49:16;;;;;;;;;;;;;;;;;;5082154;28;19962;-66
2022/09/21 06:51:42;;;;;;;;;;;;;;;;;;5068004;28;19996;-66
2022/09/21 06:54:07;;;;;;;;;;;;;;;;;;5085996;28;19912;-67
2022/09/21 06:56:32;;;;;;;;;;;;;;;;;;5077615;28;20302;-65
2022/09/21 06:58:57;;;;;;;;;;;;;;;;;;5074685;28;20360;-66
2022/09/21 07:01:23;;;;;;;;;;;;;;;;;;5074394;28;19912;-66
2022/09/21 07:03:48;;;;;;;;;;;;;;;;;;5074157;28;20383;-66
2022/09/21 07:06:14;;;;;;;;;;;;;;;;;;5083687;28;20271;-66
2022/09/21 07:08:39;;;;;;;;;;;;;;;;;;5052942;28;19912;-65
2022/09/21 07:11:04;;;;;;;;;;;;;;;;;;5073464;28;19913;-66
2022/09/21 07:13:30;;;;;;;;;;;;;;;;;;5082205;28;20360;-66
2022/09/21 07:15:55;;;;;;;;;;;;;;;;;;5077306;28;20245;-66
2022/09/21 07:18:20;;;;;;;;;;;;;;;;;;5069820;28;19928;-67
2022/09/21 07:20:47;;;;;;;;;;;;;;;;;;5052342;28;19913;-65
2022/09/21 07:23:14;;;;;;;;;;;;;;;;;;5060447;28;19926;-65
2022/09/21 07:25:39;;;;;;;;;;;;;;;;;;5061165;28;19912;-65
2022/09/21 07:28:04;;;;;;;;;;;;;;;;;;5072929;28;19919;-65
2022/09/21 07:30:29;;;;;;;;;;;;;;;;;;5071292;28;19926;-65
2022/09/21 07:32:54;;;;;;;;;;;;;;;;;;5072103;28;20319;-66
2022/09/21 07:35:19;;;;;;;;;;;;;;;;;;5071063;28;20425;-66
2022/09/21 07:37:44;;;;;;;;;;;;;;;;;;5053211;28;20361;-67
2022/09/21 07:40:10;;;;;;;;;;;;;;;;;;5055621;28;19926;-65
2022/09/21 07:42:35;;;;;;;;;;;;;;;;;;5054868;28;19922;-66
2022/09/21 07:45:00;;;;;;;;;;;;;;;;;;5076448;28;20287;-66
2022/09/21 07:47:26;;;;;;;;;;;;;;;;;;5047075;28;20284;-66
2022/09/21 07:49:51;;;;;;;;;;;;;;;;;;5058740;28;19920;-66
2022/09/21 07:52:18;;;;;;;;;;;;;;;;;;5074794;28;19974;-65
2022/09/21 07:54:43;;;;;;;;;;;;;;;;;;5059043;28;20371;-66
2022/09/21 07:59:56;;;;;;;;;;;;;;;;;;5068887;28;19927;-66
2022/09/21 08:02:21;;;;;;;;;;;;;;;;;;5070579;28;19921;-66
2022/09/21 08:04:46;;;;;;;;;;;;;;;;;;5070260;28;20340;-66
2022/09/21 08:07:12;;;;;;;;;;;;;;;;;;5055823;28;19920;-67
2022/09/21 08:09:37;;;;;;;;;;;;;;;;;;5071733;28;21035;-66
2022/09/21 08:12:02;;;;;;;;;;;;;;;;;;5071368;28;19912;-66
2022/09/21 08:14:28;;;;;;;;;;;;;;;;;;5075317;28;20296;-66
2022/09/21 08:16:53;;;;;;;;;;;;;;;;;;5074910;28;20019;-66
2022/09/21 08:19:19;;;;;;;;;;;;;;;;;;5054568;28;19963;-66
2022/09/21 08:21:45;;;;;;;;;;;;;;;;;;5070937;28;19913;-64
2022/09/21 08:24:11;;;;;;;;;;;;;;;;;;5055766;28;19912;-66
2022/09/21 08:26:36;;;;;;;;;;;;;;;;;;5078179;28;19962;-66
2022/09/21 08:29:01;;;;;;;;;;;;;;;;;;5074456;28;19912;-65
2022/09/21 08:31:26;;;;;;;;;;;;;;;;;;5061897;28;19912;-65
2022/09/21 08:33:52;;;;;;;;;;;;;;;;;;5074386;28;19966;-65
2022/09/21 08:36:17;;;;;;;;;;;;;;;;;;5084387;28;20544;-66
2022/09/21 08:38:42;;;;;;;;;;;;;;;;;;5059064;28;19934;-66
2022/09/21 08:41:07;;;;;;;;;;;;;;;;;;5075748;28;20261;-66
2022/09/21 08:43:32;;;;;;;;;;;;;;;;;;5073185;28;19912;-66
2022/09/21 08:45:57;;;;;;;;;;;;;;;;;;5079378;28;20515;-66
2022/09/21 08:48:23;;;;;;;;;;;;;;;;;;5075487;28;19983;-66
2022/09/21 08:50:48;;;;;;;;;;;;;;;;;;5084944;28;20521;-66
2022/09/21 08:53:13;;;;;;;;;;;;;;;;;;5077568;28;19912;-66
2022/09/21 08:55:38;;;;;;;;;;;;;;;;;;5063312;28;19912;-67
2022/09/21 08:58:03;;;;;;;;;;;;;;;;;;5085434;28;19912;-65
2022/09/21 09:00:28;;;;;;;;;;;;;;;;;;5093308;28;19920;-66
2022/09/21 09:02:53;;;;;;;;;;;;;;;;;;5071690;28;20465;-66
2022/09/21 09:05:18;;;;;;;;;;;;;;;;;;5083024;28;19912;-65
2022/09/21 09:07:44;;;;;;;;;;;;;;;;;;5072081;28;19912;-66
2022/09/21 09:10:09;;;;;;;;;;;;;;;;;;5072230;28;19916;-64
2022/09/21 09:12:34;;;;;;;;;;;;;;;;;;5060768;28;19966;-67
2022/09/21 09:14:59;;;;;;;;;;;;;;;;;;5083295;28;19912;-67
2022/09/21 09:17:24;;;;;;;;;;;;;;;;;;5079814;28;19920;-67
2022/09/21 09:19:49;;;;;;;;;;;;;;;;;;5080461;28;19916;-65
2022/09/21 09:22:14;;;;;;;;;;;;;;;;;;5082628;28;19950;-67
2022/09/21 09:24:39;;;;;;;;;;;;;;;;;;5080821;28;19916;-66
2022/09/21 09:27:05;;;;;;;;;;;;;;;;;;5088885;28;20308;-66
2022/09/21 09:29:30;;;;;;;;;;;;;;;;;;5089493;28;20281;-66
2022/09/21 09:31:55;;;;;;;;;;;;;;;;;;5081594;28;19919;-67
2022/09/21 09:34:21;;;;;;;;;;;;;;;;;;5082313;28;19912;-67
2022/09/21 09:36:47;;;;;;;;;;;;;;;;;;5076440;28;19962;-66
2022/09/21 09:39:12;;;;;;;;;;;;;;;;;;5071121;28;19920;-65
2022/09/21 09:41:37;;;;;;;;;;;;;;;;;;5072990;28;19913;-66
2022/09/21 09:44:02;;;;;;;;;;;;;;;;;;5066922;28;20319;-66
2022/09/21 09:46:28;;;;;;;;;;;;;;;;;;5073789;28;19920;-67
2022/09/21 09:48:53;;;;;;;;;;;;;;;;;;5057237;28;19912;-67
2022/09/21 09:51:19;;;;;;;;;;;;;;;;;;5064421;28;19916;-66
2022/09/21 09:53:44;;;;;;;;;;;;;;;;;;5078305;28;20415;-66
2022/09/21 09:56:09;;;;;;;;;;;;;;;;;;5075586;28;20433;-66
2022/09/21 09:58:35;;;;;;;;;;;;;;;;;;5074947;28;19923;-67
2022/09/21 10:01:00;;;;;;;;;;;;;;;;;;5063405;28;20730;-67
2022/09/21 10:03:26;;;;;;;;;;;;;;;;;;5080816;28;20310;-66
2022/09/21 10:05:51;;;;;;;;;;;;;;;;;;5079639;28;19954;-66
2022/09/21 10:08:16;;;;;;;;;;;;;;;;;;5075271;28;19912;-67
2022/09/21 10:10:41;;;;;;;;;;;;;;;;;;5063618;28;20287;-66
2022/09/21 10:13:07;;;;;;;;;;;;;;;;;;5063703;28;20375;-66
2022/09/21 10:15:32;;;;;;;;;;;;;;;;;;5086530;28;19974;-65
2022/09/21 10:17:57;;;;;;;;;;;;;;;;;;5084637;28;20437;-66
2022/09/21 10:20:24;;;;;;;;;;;;;;;;;;5071261;28;19927;-65
2022/09/21 10:22:49;;;;;;;;;;;;;;;;;;5076141;28;19943;-66
2022/09/21 10:25:14;;;;;;;;;;;;;;;;;;5073374;28;19916;-66
2022/09/21 10:27:39;;;;;;;;;;;;;;;;;;5056048;28;19956;-66
2022/09/21 10:30:04;;;;;;;;;;;;;;;;;;5083128;28;19912;-66
2022/09/21 10:32:30;;;;;;;;;;;;;;;;;;5073116;28;20281;-66
2022/09/21 10:34:55;;;;;;;;;;;;;;;;;;5078598;28;20283;-66
2022/09/21 10:37:20;;;;;;;;;;;;;;;;;;5060594;28;19917;-64
2022/09/21 10:39:46;;;;;;;;;;;;;;;;;;5078786;28;19958;-65
2022/09/21 10:42:11;;;;;;;;;;;;;;;;;;5087375;28;19923;-66
2022/09/21 10:44:36;;;;;;;;;;;;;;;;;;5067367;28;20364;-66
2022/09/21 10:47:01;;;;;;;;;;;;;;;;;;5077750;28;20375;-65
2022/09/21 10:49:26;;;;;;;;;;;;;;;;;;5091146;28;19919;-67
2022/09/21 10:51:51;;;;;;;;;;;;;;;;;;5094784;28;19912;-66
2022/09/21 10:54:16;;;;;;;;;;;;;;;;;;5067010;28;20459;-66
2022/09/21 10:56:42;;;;;;;;;;;;;;;;;;5068698;28;19957;-66
2022/09/21 10:59:07;;;;;;;;;;;;;;;;;;5083629;28;19923;-67
2022/09/21 11:01:32;;;;;;;;;;;;;;;;;;5081303;28;19919;-66
2022/09/21 11:03:57;;;;;;;;;;;;;;;;;;5063106;28;19917;-67
2022/09/21 11:06:22;;;;;;;;;;;;;;;;;;5071720;28;20021;-64
2022/09/21 11:08:48;;;;;;;;;;;;;;;;;;5071917;28;20292;-65
2022/09/21 11:11:13;;;;;;;;;;;;;;;;;;5055555;28;19913;-65
2022/09/21 11:13:38;;;;;;;;;;;;;;;;;;5078608;28;19912;-66
2022/09/21 11:16:03;;;;;;;;;;;;;;;;;;5063471;28;20364;-65
2022/09/21 11:18:29;;;;;;;;;;;;;;;;;;5074620;28;19920;-65
2022/09/21 11:20:54;;;;;;;;;;;;;;;;;;5072863;28;20690;-65
2022/09/21 11:23:19;;;;;;;;;;;;;;;;;;5089860;28;19912;-67
2022/09/21 11:25:44;;;;;;;;;;;;;;;;;;5072658;28;19913;-67
2022/09/21 11:28:12;;;;;;;;;;;;;;;;;;5072792;28;19932;-67
2022/09/21 11:30:38;;;;;;;;;;;;;;;;;;5073296;28;20364;-67
2022/09/21 11:33:03;;;;;;;;;;;;;;;;;;5072511;28;19908;-65
2022/09/21 11:35:28;;;;;;;;;;;;;;;;;;5104822;28;19908;-66
2022/09/21 11:37:53;;;;;;;;;;;;;;;;;;5088015;28;20014;-67
2022/09/21 11:40:18;;;;;;;;;;;;;;;;;;5077708;28;20010;-66
2022/09/21 11:42:43;;;;;;;;;;;;;;;;;;5072601;28;19908;-67
2022/09/21 11:45:08;;;;;;;;;;;;;;;;;;5089945;28;20392;-65
2022/09/21 11:47:34;;;;;;;;;;;;;;;;;;5059886;28;20416;-66
2022/09/21 11:49:59;;;;;;;;;;;;;;;;;;5073961;28;19912;-66
2022/09/21 11:52:24;;;;;;;;;;;;;;;;;;5074774;28;20053;-66
2022/09/21 11:54:50;;;;;;;;;;;;;;;;;;5075355;28;20288;-67
2022/09/21 11:57:17;;;;;;;;;;;;;;;;;;5063468;28;19917;-69
2022/09/21 11:59:43;;;;;;;;;;;;;;;;;;5058516;28;19922;-70
2022/09/21 12:02:08;;;;;;;;;;;;;;;;;;5073750;28;19912;-70
2022/09/21 12:04:33;;;;;;;;;;;;;;;;;;5060563;28;19965;-70
2022/09/21 12:06:58;;;;;;;;;;;;;;;;;;5086815;28;19920;-71
2022/09/21 12:09:23;;;;;;;;;;;;;;;;;;5076444;28;19916;-67
2022/09/21 12:11:49;;;;;;;;;;;;;;;;;;5077347;28;19934;-68
2022/09/21 12:14:14;;;;;;;;;;;;;;;;;;5057129;28;19958;-64
2022/09/21 12:16:39;;;;;;;;;;;;;;;;;;5080101;28;19945;-68
2022/09/21 12:19:04;;;;;;;;;;;;;;;;;;5089617;28;20394;-69
2022/09/21 12:21:29;;;;;;;;;;;;;;;;;;5077187;28;20242;-67
2022/09/21 12:23:54;;;;;;;;;;;;;;;;;;5075395;28;20300;-65
2022/09/21 12:26:20;;;;;;;;;;;;;;;;;;5099806;28;19911;-64
2022/09/21 12:28:45;;;;;;;;;;;;;;;;;;5086636;28;20346;-69
2022/09/21 12:31:10;;;;;;;;;;;;;;;;;;5066977;28;19951;-69
2022/09/21 12:33:35;;;;;;;;;;;;;;;;;;5071138;28;19916;-68
2022/09/21 12:36:00;;;;;;;;;;;;;;;;;;5070784;28;19916;-69
2022/09/21 12:38:25;;;;;;;;;;;;;;;;;;5075402;28;19904;-69
2022/09/21 12:40:51;;;;;;;;;;;;;;;;;;5078681;28;19916;-74
2022/09/21 12:43:16;;;;;;;;;;;;;;;;;;5064775;28;19919;-69
2022/09/21 12:45:41;;;;;;;;;;;;;;;;;;5077100;28;20383;-74
2022/09/21 12:48:06;;;;;;;;;;;;;;;;;;5062116;28;20003;-76
2022/09/21 12:50:32;;;;;;;;;;;;;;;;;;5079340;28;19921;-68
2022/09/21 12:52:58;;;;;;;;;;;;;;;;;;5064403;28;19920;-70
2022/09/21 12:55:24;;;;;;;;;;;;;;;;;;5057777;28;19999;-77
2022/09/21 12:57:49;;;;;;;;;;;;;;;;;;5071032;28;19919;-76
2022/09/21 13:00:14;;;;;;;;;;;;;;;;;;5075982;28;19916;-66
2022/09/21 13:02:40;;;;;;;;;;;;;;;;;;5077330;28;19916;-73
2022/09/21 13:05:05;;;;;;;;;;;;;;;;;;5083060;28;19962;-72
2022/09/21 13:07:31;;;;;;;;;;;;;;;;;;5064031;28;19912;-75
2022/09/21 13:09:56;;;;;;;;;;;;;;;;;;5061644;28;19912;-74
2022/09/21 13:12:22;;;;;;;;;;;;;;;;;;5082113;28;19923;-76
2022/09/21 13:14:47;;;;;;;;;;;;;;;;;;5095130;28;19999;-73
2022/09/21 13:17:12;;;;;;;;;;;;;;;;;;5073331;28;20023;-76
2022/09/21 13:19:37;;;;;;;;;;;;;;;;;;5054143;28;19917;-76
2022/09/21 13:22:02;;;;;;;;;;;;;;;;;;5056477;28;20320;-75
2022/09/21 13:24:28;;;;;;;;;;;;;;;;;;5053729;28;20310;-77
2022/09/21 13:26:53;;;;;;;;;;;;;;;;;;5057100;28;20361;-75
2022/09/21 13:29:18;;;;;;;;;;;;;;;;;;5036673;28;20373;-79
2022/09/21 13:31:43;;;;;;;;;;;;;;;;;;5055251;28;19913;-74
2022/09/21 13:34:08;;;;;;;;;;;;;;;;;;5039664;28;19919;-75
2022/09/21 13:36:34;;;;;;;;;;;;;;;;;;5035876;28;19916;-72
2022/09/21 13:38:59;;;;;;;;;;;;;;;;;;5041133;28;19913;-77
2022/09/21 13:41:24;;;;;;;;;;;;;;;;;;5042138;28;20683;-77
2022/09/21 13:43:49;;;;;;;;;;;;;;;;;;5067941;28;20350;-79
2022/09/21 13:46:14;;;;;;;;;;;;;;;;;;5057035;28;20427;-72
2022/09/21 13:48:39;;;;;;;;;;;;;;;;;;5039226;28;19923;-70
2022/09/21 13:51:04;;;;;;;;;;;;;;;;;;5040163;28;19928;-75
2022/09/21 13:53:31;;;;;;;;;;;;;;;;;;5056927;28;20288;-70
2022/09/21 13:55:56;;;;;;;;;;;;;;;;;;5062722;28;20331;-69
2022/09/21 13:58:22;;;;;;;;;;;;;;;;;;5063349;28;19916;-68
2022/09/21 14:00:47;;;;;;;;;;;;;;;;;;5038444;28;19921;-73
2022/09/21 14:03:12;;;;;;;;;;;;;;;;;;5062628;28;20147;-66
2022/09/21 14:05:38;;;;;;;;;;;;;;;;;;5052465;28;19913;-66
2022/09/21 14:08:04;;;;;;;;;;;;;;;;;;5052363;28;19926;-67
2022/09/21 14:10:30;;;;;;;;;;;;;;;;;;5057235;28;20285;-66
2022/09/21 14:12:56;;;;;;;;;;;;;;;;;;5057584;28;19917;-68
2022/09/21 14:15:21;;;;;;;;;;;;;;;;;;5055706;28;19962;-67
2022/09/21 14:17:46;;;;;;;;;;;;;;;;;;5061867;28;19956;-65
2022/09/21 14:20:11;;;;;;;;;;;;;;;;;;5084764;28;20261;-66
2022/09/21 14:22:37;;;;;;;;;;;;;;;;;;5057506;28;20266;-68
2022/09/21 14:25:04;;;;;;;;;;;;;;;;;;5074836;28;20347;-67
2022/09/21 14:27:29;;;;;;;;;;;;;;;;;;5067647;28;19912;-71
2022/09/21 14:29:55;;;;;;;;;;;;;;;;;;5076965;28;19935;-76
2022/09/21 14:32:22;;;;;;;;;;;;;;;;;;5084568;28;20003;-65
2022/09/21 14:34:47;;;;;;;;;;;;;;;;;;5087277;28;20360;-67
2022/09/21 14:37:12;;;;;;;;;;;;;;;;;;5086686;28;19922;-67
2022/09/21 14:39:38;;;;;;;;;;;;;;;;;;5087280;28;19916;-69
2022/09/21 14:42:03;;;;;;;;;;;;;;;;;;5062192;28;19912;-68
2022/09/21 14:44:29;;;;;;;;;;;;;;;;;;5079571;28;20428;-68
2022/09/21 14:46:54;;;;;;;;;;;;;;;;;;5080929;28;19912;-68
2022/09/21 14:49:19;;;;;;;;;;;;;;;;;;5056957;28;19916;-68
2022/09/21 14:51:44;;;;;;;;;;;;;;;;;;5083591;28;20015;-68
2022/09/21 14:54:09;;;;;;;;;;;;;;;;;;5056229;28;19912;-68
2022/09/21 14:56:34;;;;;;;;;;;;;;;;;;5059013;28;20023;-68
2022/09/21 14:59:01;;;;;;;;;;;;;;;;;;5059400;28;19923;-67
2022/09/21 15:01:28;;;;;;;;;;;;;;;;;;5092996;28;19991;-68
2022/09/21 15:03:53;;;;;;;;;;;;;;;;;;5072614;28;19955;-67
2022/09/21 15:11:46;;;;;;;;;;;;;;;;;;5077637;28;19920;-67
2022/09/21 15:14:11;;;;;;;;;;;;;;;;;;5091077;28;19912;-68
2022/09/21 15:16:37;;;;;;;;;;;;;;;;;;5069579;28;20145;-66
2022/09/21 15:19:03;;;;;;;;;;;;;;;;;;5078694;28;20403;-66
2022/09/21 15:21:28;;;;;;;;;;;;;;;;;;5050720;28;19909;-67
2022/09/21 15:23:53;;;;;;;;;;;;;;;;;;5053405;28;19960;-67
2022/09/21 15:26:19;;;;;;;;;;;;;;;;;;5069952;28;19952;-67
2022/09/21 15:28:48;;;;;;;;;;;;;;;;;;5038260;28;19913;-67
2022/09/21 15:31:14;;;;;;;;;;;;;;;;;;5059010;28;19913;-67
2022/09/21 15:33:41;;;;;;;;;;;;;;;;;;5052148;28;20281;-67
2022/09/21 15:36:08;;;;;;;;;;;;;;;;;;5065363;28;20387;-67
2022/09/21 15:38:35;;;;;;;;;;;;;;;;;;5059162;28;20005;-68
2022/09/21 15:41:00;;;;;;;;;;;;;;;;;;5040168;28;20364;-68
2022/09/21 15:43:25;;;;;;;;;;;;;;;;;;5062341;28;19939;-68
2022/09/21 15:45:50;;;;;;;;;;;;;;;;;;5066861;28;19956;-68
2022/09/21 15:48:15;;;;;;;;;;;;;;;;;;5049065;28;19913;-68
2022/09/21 15:50:42;;;;;;;;;;;;;;;;;;5057271;28;19948;-68
2022/09/21 15:53:08;;;;;;;;;;;;;;;;;;5071895;28;19908;-68
2022/09/21 15:55:33;;;;;;;;;;;;;;;;;;5047576;28;19924;-67
2022/09/21 15:57:58;;;;;;;;;;;;;;;;;;5036073;28;20361;-68
2022/09/21 16:00:23;;;;;;;;;;;;;;;;;;5045777;28;19931;-67
2022/09/21 16:02:49;;;;;;;;;;;;;;;;;;5034456;28;19909;-67
2022/09/21 16:05:14;;;;;;;;;;;;;;;;;;5052600;28;19950;-68
2022/09/21 16:07:40;;;;;;;;;;;;;;;;;;5043923;28;20397;-67
2022/09/21 16:10:05;;;;;;;;;;;;;;;;;;5066554;28;20311;-69
2022/09/21 16:12:30;;;;;;;;;;;;;;;;;;5059651;28;20261;-67
2022/09/21 16:14:55;;;;;;;;;;;;;;;;;;5069725;28;19909;-68
2022/09/21 16:17:21;;;;;;;;;;;;;;;;;;5065297;28;20307;-69
2022/09/21 16:19:46;;;;;;;;;;;;;;;;;;5080927;28;20352;-68
2022/09/21 16:22:12;;;;;;;;;;;;;;;;;;5081724;28;19988;-68
2022/09/21 16:24:37;;;;;;;;;;;;;;;;;;5068562;28;20387;-67
2022/09/21 16:27:02;;;;;;;;;;;;;;;;;;5069025;28;19916;-67
2022/09/21 16:29:28;;;;;;;;;;;;;;;;;;5057594;28;19918;-67
2022/09/21 16:31:53;;;;;;;;;;;;;;;;;;5084831;28;19963;-69
2022/09/21 16:34:20;;;;;;;;;;;;;;;;;;5059376;28;19951;-69
2022/09/21 16:36:45;;;;;;;;;;;;;;;;;;5086006;28;19962;-67
2022/09/21 16:39:10;;;;;;;;;;;;;;;;;;5084462;28;19915;-68
2022/09/21 16:41:35;;;;;;;;;;;;;;;;;;5083499;28;20027;-67
2022/09/21 16:44:02;;;;;;;;;;;;;;;;;;5061523;28;19919;-67